sensor_id;sensor_type;location;lat;lon;timestamp;P1;durP1;ratioP1;P2;durP2;ratioP2
9409;SDS011;4744;52.576;13.568;2022-12-18T00:01:04;24.83;;;14.27;;
9409;SDS011;4744;52.576;13.568;2022-12-18T00:03:32;24.80;;;13.80;;
9409;SDS011;4744;52.576;13.568;2022-12-18T00:05:59;25.73;;;13.67;;
9409;SDS011;4744;52.576;13.568;2022-12-18T00:08:27;22.20;;;13.03;;
9409;SDS011;4744;52.576;13.568;2022-12-18T00:10:54;22.57;;;12.33;;
9409;SDS011;4744;52.576;13.568;2022-12-18T00:13:21;22.37;;;12.97;;
9409;SDS011;4744;52.576;13.568;2022-12-18T00:15:52;22.57;;;12.77;;
9409;SDS011;4744;52.576;13.568;2022-12-18T00:18:19;25.47;;;13.30;;
9409;SDS011;4744;52.576;13.568;2022-12-18T00:20:46;20.27;;;12.70;;
9409;SDS011;4744;52.576;13.568;2022-12-18T00:23:13;24.63;;;14.10;;
9409;SDS011;4744;52.576;13.568;2022-12-18T00:25:40;22.07;;;12.93;;
9409;SDS011;4744;52.576;13.568;2022-12-18T00:28:07;23.17;;;12.63;;
9409;SDS011;4744;52.576;13.568;2022-12-18T00:30:33;23.27;;;13.30;;
9409;SDS011;4744;52.576;13.568;2022-12-18T00:33:02;22.00;;;13.47;;
9409;SDS011;4744;52.576;13.568;2022-12-18T00:35:29;23.00;;;12.87;;
9409;SDS011;4744;52.576;13.568;2022-12-18T00:37:56;25.90;;;13.40;;
9409;SDS011;4744;52.576;13.568;2022-12-18T00:40:22;25.70;;;14.03;;
9409;SDS011;4744;52.576;13.568;2022-12-18T00:42:49;24.20;;;14.37;;
9409;SDS011;4744;52.576;13.568;2022-12-18T00:45:24;25.23;;;14.50;;
9409;SDS011;4744;52.576;13.568;2022-12-18T00:47:52;26.13;;;14.40;;
9409;SDS011;4744;52.576;13.568;2022-12-18T00:50:21;26.30;;;13.93;;
9409;SDS011;4744;52.576;13.568;2022-12-18T00:52:49;27.97;;;14.87;;
9409;SDS011;4744;52.576;13.568;2022-12-18T00:55:16;27.23;;;14.77;;
9409;SDS011;4744;52.576;13.568;2022-12-18T00:57:44;33.23;;;16.33;;
9409;SDS011;4744;52.576;13.568;2022-12-18T01:00:12;35.30;;;16.63;;
9409;SDS011;4744;52.576;13.568;2022-12-18T01:02:40;31.77;;;16.17;;
9409;SDS011;4744;52.576;13.568;2022-12-18T01:05:08;35.57;;;16.93;;
9409;SDS011;4744;52.576;13.568;2022-12-18T01:07:38;39.30;;;18.07;;
9409;SDS011;4744;52.576;13.568;2022-12-18T01:10:05;38.47;;;17.80;;
9409;SDS011;4744;52.576;13.568;2022-12-18T01:12:33;38.43;;;17.07;;
9409;SDS011;4744;52.576;13.568;2022-12-18T01:15:00;40.97;;;20.27;;
9409;SDS011;4744;52.576;13.568;2022-12-18T01:17:27;42.07;;;20.30;;
9409;SDS011;4744;52.576;13.568;2022-12-18T01:19:54;42.27;;;19.57;;
9409;SDS011;4744;52.576;13.568;2022-12-18T01:22:21;39.53;;;19.40;;
9409;SDS011;4744;52.576;13.568;2022-12-18T01:24:49;40.97;;;19.20;;
9409;SDS011;4744;52.576;13.568;2022-12-18T01:27:16;38.73;;;18.50;;
9409;SDS011;4744;52.576;13.568;2022-12-18T01:29:43;35.00;;;18.33;;
9409;SDS011;4744;52.576;13.568;2022-12-18T01:32:10;36.77;;;18.50;;
9409;SDS011;4744;52.576;13.568;2022-12-18T01:34:36;35.40;;;17.73;;
9409;SDS011;4744;52.576;13.568;2022-12-18T01:37:04;37.30;;;17.60;;
9409;SDS011;4744;52.576;13.568;2022-12-18T01:39:31;35.30;;;17.43;;
9409;SDS011;4744;52.576;13.568;2022-12-18T01:42:00;39.90;;;18.87;;
9409;SDS011;4744;52.576;13.568;2022-12-18T01:47:26;36.20;;;17.53;;
9409;SDS011;4744;52.576;13.568;2022-12-18T01:49:57;38.10;;;17.83;;
9409;SDS011;4744;52.576;13.568;2022-12-18T01:52:28;30.87;;;15.63;;
9409;SDS011;4744;52.576;13.568;2022-12-18T01:54:57;40.50;;;18.40;;
9409;SDS011;4744;52.576;13.568;2022-12-18T01:57:26;35.77;;;17.83;;
9409;SDS011;4744;52.576;13.568;2022-12-18T01:59:55;30.47;;;17.00;;
9409;SDS011;4744;52.576;13.568;2022-12-18T02:02:26;35.70;;;16.53;;
9409;SDS011;4744;52.576;13.568;2022-12-18T02:04:54;31.30;;;15.83;;
9409;SDS011;4744;52.576;13.568;2022-12-18T02:07:23;37.83;;;17.50;;
9409;SDS011;4744;52.576;13.568;2022-12-18T02:10:00;33.23;;;16.77;;
9409;SDS011;4744;52.576;13.568;2022-12-18T02:12:33;31.90;;;16.63;;
9409;SDS011;4744;52.576;13.568;2022-12-18T02:15:09;33.53;;;16.47;;
9409;SDS011;4744;52.576;13.568;2022-12-18T02:17:42;27.90;;;14.53;;
9409;SDS011;4744;52.576;13.568;2022-12-18T02:20:16;35.50;;;16.60;;
9409;SDS011;4744;52.576;13.568;2022-12-18T02:22:55;32.70;;;17.30;;
9409;SDS011;4744;52.576;13.568;2022-12-18T02:28:35;25.80;;;14.43;;
9409;SDS011;4744;52.576;13.568;2022-12-18T02:31:06;26.67;;;14.17;;
9409;SDS011;4744;52.576;13.568;2022-12-18T02:33:37;30.03;;;15.90;;
9409;SDS011;4744;52.576;13.568;2022-12-18T02:36:06;27.43;;;15.57;;
9409;SDS011;4744;52.576;13.568;2022-12-18T02:38:35;31.37;;;16.10;;
9409;SDS011;4744;52.576;13.568;2022-12-18T02:41:03;29.37;;;15.53;;
9409;SDS011;4744;52.576;13.568;2022-12-18T02:43:31;28.10;;;14.77;;
9409;SDS011;4744;52.576;13.568;2022-12-18T02:46:00;31.77;;;16.17;;
9409;SDS011;4744;52.576;13.568;2022-12-18T02:48:51;27.07;;;13.87;;
9409;SDS011;4744;52.576;13.568;2022-12-18T02:51:24;32.37;;;15.93;;
9409;SDS011;4744;52.576;13.568;2022-12-18T02:54:00;28.77;;;15.50;;
9409;SDS011;4744;52.576;13.568;2022-12-18T02:56:33;26.07;;;14.00;;
9409;SDS011;4744;52.576;13.568;2022-12-18T02:59:05;31.43;;;15.37;;
9409;SDS011;4744;52.576;13.568;2022-12-18T03:01:42;28.60;;;14.40;;
9409;SDS011;4744;52.576;13.568;2022-12-18T03:04:17;26.07;;;13.50;;
9409;SDS011;4744;52.576;13.568;2022-12-18T03:06:49;22.30;;;13.20;;
9409;SDS011;4744;52.576;13.568;2022-12-18T03:09:20;25.83;;;13.57;;
9409;SDS011;4744;52.576;13.568;2022-12-18T03:11:52;25.93;;;13.93;;
9409;SDS011;4744;52.576;13.568;2022-12-18T03:14:39;24.77;;;12.87;;
9409;SDS011;4744;52.576;13.568;2022-12-18T03:17:12;26.60;;;13.47;;
9409;SDS011;4744;52.576;13.568;2022-12-18T03:19:42;19.73;;;12.27;;
9409;SDS011;4744;52.576;13.568;2022-12-18T03:22:12;24.23;;;12.03;;
9409;SDS011;4744;52.576;13.568;2022-12-18T03:24:42;24.17;;;13.80;;
9409;SDS011;4744;52.576;13.568;2022-12-18T03:27:12;24.20;;;11.80;;
9409;SDS011;4744;52.576;13.568;2022-12-18T03:29:42;21.53;;;12.03;;
9409;SDS011;4744;52.576;13.568;2022-12-18T03:32:15;21.73;;;11.63;;
9409;SDS011;4744;52.576;13.568;2022-12-18T03:34:45;25.40;;;13.47;;
9409;SDS011;4744;52.576;13.568;2022-12-18T03:37:16;24.30;;;13.30;;
9409;SDS011;4744;52.576;13.568;2022-12-18T03:39:43;20.93;;;11.67;;
9409;SDS011;4744;52.576;13.568;2022-12-18T03:42:12;24.67;;;13.20;;
9409;SDS011;4744;52.576;13.568;2022-12-18T03:44:45;26.13;;;13.27;;
9409;SDS011;4744;52.576;13.568;2022-12-18T03:47:21;24.40;;;13.93;;
9409;SDS011;4744;52.576;13.568;2022-12-18T03:49:55;26.83;;;14.33;;
9409;SDS011;4744;52.576;13.568;2022-12-18T03:52:25;26.97;;;13.03;;
9409;SDS011;4744;52.576;13.568;2022-12-18T03:54:55;28.00;;;13.70;;
9409;SDS011;4744;52.576;13.568;2022-12-18T03:57:24;24.03;;;13.67;;
9409;SDS011;4744;52.576;13.568;2022-12-18T03:59:55;26.73;;;13.33;;
9409;SDS011;4744;52.576;13.568;2022-12-18T04:02:27;26.73;;;12.40;;
9409;SDS011;4744;52.576;13.568;2022-12-18T04:04:57;26.10;;;13.20;;
9409;SDS011;4744;52.576;13.568;2022-12-18T04:07:28;26.10;;;12.93;;
9409;SDS011;4744;52.576;13.568;2022-12-18T04:09:55;27.50;;;13.30;;
9409;SDS011;4744;52.576;13.568;2022-12-18T04:12:24;25.20;;;12.90;;
9409;SDS011;4744;52.576;13.568;2022-12-18T04:14:52;23.90;;;13.00;;
9409;SDS011;4744;52.576;13.568;2022-12-18T04:17:19;27.13;;;14.40;;
9409;SDS011;4744;52.576;13.568;2022-12-18T04:19:48;24.67;;;12.80;;
9409;SDS011;4744;52.576;13.568;2022-12-18T04:22:15;26.90;;;13.80;;
9409;SDS011;4744;52.576;13.568;2022-12-18T04:24:42;26.43;;;13.07;;
9409;SDS011;4744;52.576;13.568;2022-12-18T04:27:08;23.60;;;13.27;;
9409;SDS011;4744;52.576;13.568;2022-12-18T04:29:35;24.70;;;12.33;;
9409;SDS011;4744;52.576;13.568;2022-12-18T04:32:02;22.33;;;12.33;;
9409;SDS011;4744;52.576;13.568;2022-12-18T04:34:30;23.80;;;13.23;;
9409;SDS011;4744;52.576;13.568;2022-12-18T04:36:58;21.10;;;11.93;;
9409;SDS011;4744;52.576;13.568;2022-12-18T04:39:25;24.97;;;12.77;;
9409;SDS011;4744;52.576;13.568;2022-12-18T04:41:51;23.67;;;13.07;;
9409;SDS011;4744;52.576;13.568;2022-12-18T04:44:18;23.97;;;13.07;;
9409;SDS011;4744;52.576;13.568;2022-12-18T04:46:45;24.43;;;13.33;;
9409;SDS011;4744;52.576;13.568;2022-12-18T04:49:12;24.77;;;13.23;;
9409;SDS011;4744;52.576;13.568;2022-12-18T04:51:39;23.37;;;13.33;;
9409;SDS011;4744;52.576;13.568;2022-12-18T04:54:07;24.67;;;13.17;;
9409;SDS011;4744;52.576;13.568;2022-12-18T04:56:34;24.27;;;14.10;;
9409;SDS011;4744;52.576;13.568;2022-12-18T04:59:01;26.90;;;13.43;;
9409;SDS011;4744;52.576;13.568;2022-12-18T05:01:28;22.77;;;12.90;;
9409;SDS011;4744;52.576;13.568;2022-12-18T05:03:55;25.90;;;12.87;;
9409;SDS011;4744;52.576;13.568;2022-12-18T05:06:22;20.97;;;11.50;;
9409;SDS011;4744;52.576;13.568;2022-12-18T05:08:49;20.07;;;11.17;;
9409;SDS011;4744;52.576;13.568;2022-12-18T05:11:17;20.97;;;11.77;;
9409;SDS011;4744;52.576;13.568;2022-12-18T05:13:44;25.50;;;13.10;;
9409;SDS011;4744;52.576;13.568;2022-12-18T05:16:11;23.20;;;11.80;;
9409;SDS011;4744;52.576;13.568;2022-12-18T05:18:39;22.70;;;12.17;;
9409;SDS011;4744;52.576;13.568;2022-12-18T05:21:06;24.27;;;12.30;;
9409;SDS011;4744;52.576;13.568;2022-12-18T05:23:33;23.50;;;12.37;;
9409;SDS011;4744;52.576;13.568;2022-12-18T05:26:02;22.70;;;12.97;;
9409;SDS011;4744;52.576;13.568;2022-12-18T05:28:32;24.63;;;12.73;;
9409;SDS011;4744;52.576;13.568;2022-12-18T05:31:01;22.77;;;12.03;;
9409;SDS011;4744;52.576;13.568;2022-12-18T05:33:30;22.90;;;12.07;;
9409;SDS011;4744;52.576;13.568;2022-12-18T05:36:03;24.80;;;12.20;;
9409;SDS011;4744;52.576;13.568;2022-12-18T05:38:32;19.17;;;10.87;;
9409;SDS011;4744;52.576;13.568;2022-12-18T05:41:00;21.80;;;11.53;;
9409;SDS011;4744;52.576;13.568;2022-12-18T05:43:27;22.63;;;11.70;;
9409;SDS011;4744;52.576;13.568;2022-12-18T05:45:57;20.73;;;11.53;;
9409;SDS011;4744;52.576;13.568;2022-12-18T05:48:24;24.40;;;12.33;;
9409;SDS011;4744;52.576;13.568;2022-12-18T05:50:51;21.60;;;12.13;;
9409;SDS011;4744;52.576;13.568;2022-12-18T05:53:18;21.67;;;12.63;;
9409;SDS011;4744;52.576;13.568;2022-12-18T05:55:46;22.90;;;11.80;;
9409;SDS011;4744;52.576;13.568;2022-12-18T05:58:14;24.00;;;12.23;;
9409;SDS011;4744;52.576;13.568;2022-12-18T06:00:42;23.47;;;11.73;;
9409;SDS011;4744;52.576;13.568;2022-12-18T06:03:12;23.67;;;12.27;;
9409;SDS011;4744;52.576;13.568;2022-12-18T06:05:40;22.67;;;12.50;;
9409;SDS011;4744;52.576;13.568;2022-12-18T06:08:08;20.70;;;11.50;;
9409;SDS011;4744;52.576;13.568;2022-12-18T06:10:35;21.07;;;11.20;;
9409;SDS011;4744;52.576;13.568;2022-12-18T06:13:02;27.07;;;13.07;;
9409;SDS011;4744;52.576;13.568;2022-12-18T06:15:30;20.13;;;11.50;;
9409;SDS011;4744;52.576;13.568;2022-12-18T06:17:57;23.47;;;11.80;;
9409;SDS011;4744;52.576;13.568;2022-12-18T06:20:25;22.07;;;12.23;;
9409;SDS011;4744;52.576;13.568;2022-12-18T06:22:52;22.63;;;12.10;;
9409;SDS011;4744;52.576;13.568;2022-12-18T06:25:19;22.33;;;10.87;;
9409;SDS011;4744;52.576;13.568;2022-12-18T06:27:46;25.57;;;11.87;;
9409;SDS011;4744;52.576;13.568;2022-12-18T06:30:14;22.43;;;11.67;;
9409;SDS011;4744;52.576;13.568;2022-12-18T06:32:41;21.97;;;11.30;;
9409;SDS011;4744;52.576;13.568;2022-12-18T06:35:08;25.00;;;12.03;;
9409;SDS011;4744;52.576;13.568;2022-12-18T06:37:36;21.33;;;12.10;;
9409;SDS011;4744;52.576;13.568;2022-12-18T06:40:03;20.00;;;11.07;;
9409;SDS011;4744;52.576;13.568;2022-12-18T06:42:31;21.00;;;11.60;;
9409;SDS011;4744;52.576;13.568;2022-12-18T06:44:58;21.97;;;11.57;;
9409;SDS011;4744;52.576;13.568;2022-12-18T06:47:25;22.93;;;11.57;;
9409;SDS011;4744;52.576;13.568;2022-12-18T06:49:52;26.00;;;13.10;;
9409;SDS011;4744;52.576;13.568;2022-12-18T06:52:19;22.20;;;11.83;;
9409;SDS011;4744;52.576;13.568;2022-12-18T06:54:47;28.57;;;13.13;;
9409;SDS011;4744;52.576;13.568;2022-12-18T06:57:14;24.23;;;12.80;;
9409;SDS011;4744;52.576;13.568;2022-12-18T06:59:41;22.77;;;12.43;;
9409;SDS011;4744;52.576;13.568;2022-12-18T07:02:10;28.70;;;13.40;;
9409;SDS011;4744;52.576;13.568;2022-12-18T07:04:37;21.97;;;12.40;;
9409;SDS011;4744;52.576;13.568;2022-12-18T07:07:04;25.23;;;12.40;;
9409;SDS011;4744;52.576;13.568;2022-12-18T07:09:31;25.93;;;12.37;;
9409;SDS011;4744;52.576;13.568;2022-12-18T07:11:59;21.17;;;12.03;;
9409;SDS011;4744;52.576;13.568;2022-12-18T07:14:26;23.57;;;12.10;;
9409;SDS011;4744;52.576;13.568;2022-12-18T07:16:53;22.33;;;11.97;;
9409;SDS011;4744;52.576;13.568;2022-12-18T07:19:23;22.97;;;12.13;;
9409;SDS011;4744;52.576;13.568;2022-12-18T07:21:50;20.90;;;11.60;;
9409;SDS011;4744;52.576;13.568;2022-12-18T07:24:17;21.90;;;12.13;;
9409;SDS011;4744;52.576;13.568;2022-12-18T07:26:45;23.10;;;12.40;;
9409;SDS011;4744;52.576;13.568;2022-12-18T07:29:13;22.17;;;12.10;;
9409;SDS011;4744;52.576;13.568;2022-12-18T07:31:40;22.27;;;11.20;;
9409;SDS011;4744;52.576;13.568;2022-12-18T07:34:09;22.60;;;11.17;;
9409;SDS011;4744;52.576;13.568;2022-12-18T07:36:37;20.70;;;10.70;;
9409;SDS011;4744;52.576;13.568;2022-12-18T07:39:04;18.53;;;10.77;;
9409;SDS011;4744;52.576;13.568;2022-12-18T07:41:31;23.70;;;12.23;;
9409;SDS011;4744;52.576;13.568;2022-12-18T07:43:58;20.50;;;10.90;;
9409;SDS011;4744;52.576;13.568;2022-12-18T07:46:26;19.23;;;11.27;;
9409;SDS011;4744;52.576;13.568;2022-12-18T07:48:53;20.63;;;11.03;;
9409;SDS011;4744;52.576;13.568;2022-12-18T07:51:20;21.67;;;11.67;;
9409;SDS011;4744;52.576;13.568;2022-12-18T07:53:47;23.47;;;11.67;;
9409;SDS011;4744;52.576;13.568;2022-12-18T07:56:14;23.57;;;11.90;;
9409;SDS011;4744;52.576;13.568;2022-12-18T07:58:40;23.00;;;12.27;;
9409;SDS011;4744;52.576;13.568;2022-12-18T08:01:10;23.00;;;12.10;;
9409;SDS011;4744;52.576;13.568;2022-12-18T08:03:39;21.33;;;12.17;;
9409;SDS011;4744;52.576;13.568;2022-12-18T08:06:07;20.67;;;12.07;;
9409;SDS011;4744;52.576;13.568;2022-12-18T08:08:35;24.33;;;14.27;;
9409;SDS011;4744;52.576;13.568;2022-12-18T08:11:02;28.17;;;15.00;;
9409;SDS011;4744;52.576;13.568;2022-12-18T08:13:29;24.50;;;12.53;;
9409;SDS011;4744;52.576;13.568;2022-12-18T08:15:56;21.10;;;11.93;;
9409;SDS011;4744;52.576;13.568;2022-12-18T08:18:24;24.50;;;12.63;;
9409;SDS011;4744;52.576;13.568;2022-12-18T08:20:52;22.30;;;12.47;;
9409;SDS011;4744;52.576;13.568;2022-12-18T08:23:20;24.53;;;12.67;;
9409;SDS011;4744;52.576;13.568;2022-12-18T08:25:47;26.17;;;12.90;;
9409;SDS011;4744;52.576;13.568;2022-12-18T08:28:17;23.30;;;13.70;;
9409;SDS011;4744;52.576;13.568;2022-12-18T08:30:44;34.57;;;22.37;;
9409;SDS011;4744;52.576;13.568;2022-12-18T08:33:11;39.57;;;25.47;;
9409;SDS011;4744;52.576;13.568;2022-12-18T08:35:38;25.80;;;15.83;;
9409;SDS011;4744;52.576;13.568;2022-12-18T08:38:06;28.40;;;13.27;;
9409;SDS011;4744;52.576;13.568;2022-12-18T08:40:33;26.00;;;13.13;;
9409;SDS011;4744;52.576;13.568;2022-12-18T08:43:00;23.93;;;13.23;;
9409;SDS011;4744;52.576;13.568;2022-12-18T08:45:53;23.73;;;12.20;;
9409;SDS011;4744;52.576;13.568;2022-12-18T08:48:20;25.53;;;13.43;;
9409;SDS011;4744;52.576;13.568;2022-12-18T08:50:53;23.53;;;12.20;;
9409;SDS011;4744;52.576;13.568;2022-12-18T08:53:24;22.20;;;12.53;;
9409;SDS011;4744;52.576;13.568;2022-12-18T08:55:52;24.13;;;12.43;;
9409;SDS011;4744;52.576;13.568;2022-12-18T08:58:19;23.40;;;13.13;;
9409;SDS011;4744;52.576;13.568;2022-12-18T09:00:46;23.03;;;11.90;;
9409;SDS011;4744;52.576;13.568;2022-12-18T09:03:13;23.57;;;12.83;;
9409;SDS011;4744;52.576;13.568;2022-12-18T09:05:40;24.60;;;12.90;;
9409;SDS011;4744;52.576;13.568;2022-12-18T09:08:08;24.13;;;12.90;;
9409;SDS011;4744;52.576;13.568;2022-12-18T09:10:42;23.20;;;12.23;;
9409;SDS011;4744;52.576;13.568;2022-12-18T09:13:10;25.17;;;13.50;;
9409;SDS011;4744;52.576;13.568;2022-12-18T09:15:40;25.10;;;12.87;;
9409;SDS011;4744;52.576;13.568;2022-12-18T09:18:07;25.53;;;12.63;;
9409;SDS011;4744;52.576;13.568;2022-12-18T09:20:35;27.03;;;14.03;;
9409;SDS011;4744;52.576;13.568;2022-12-18T09:23:02;27.30;;;13.00;;
9409;SDS011;4744;52.576;13.568;2022-12-18T09:25:29;27.83;;;13.40;;
9409;SDS011;4744;52.576;13.568;2022-12-18T09:27:59;29.13;;;13.63;;
9409;SDS011;4744;52.576;13.568;2022-12-18T09:30:27;24.73;;;13.30;;
9409;SDS011;4744;52.576;13.568;2022-12-18T09:32:54;24.97;;;12.37;;
9409;SDS011;4744;52.576;13.568;2022-12-18T09:35:21;24.47;;;13.70;;
9409;SDS011;4744;52.576;13.568;2022-12-18T09:37:48;31.50;;;13.60;;
9409;SDS011;4744;52.576;13.568;2022-12-18T09:40:15;26.37;;;13.40;;
9409;SDS011;4744;52.576;13.568;2022-12-18T09:42:44;26.40;;;14.23;;
9409;SDS011;4744;52.576;13.568;2022-12-18T09:45:16;29.00;;;14.37;;
9409;SDS011;4744;52.576;13.568;2022-12-18T09:47:44;27.20;;;13.60;;
9409;SDS011;4744;52.576;13.568;2022-12-18T09:50:16;32.17;;;15.07;;
9409;SDS011;4744;52.576;13.568;2022-12-18T09:52:50;31.47;;;15.40;;
9409;SDS011;4744;52.576;13.568;2022-12-18T09:55:21;31.63;;;14.97;;
9409;SDS011;4744;52.576;13.568;2022-12-18T09:57:53;31.63;;;14.73;;
9409;SDS011;4744;52.576;13.568;2022-12-18T10:00:24;28.17;;;14.13;;
9409;SDS011;4744;52.576;13.568;2022-12-18T10:02:52;30.53;;;14.33;;
9409;SDS011;4744;52.576;13.568;2022-12-18T10:05:29;28.03;;;13.30;;
9409;SDS011;4744;52.576;13.568;2022-12-18T10:08:05;28.70;;;13.43;;
9409;SDS011;4744;52.576;13.568;2022-12-18T10:10:38;28.13;;;14.00;;
9409;SDS011;4744;52.576;13.568;2022-12-18T10:13:15;31.03;;;15.33;;
9409;SDS011;4744;52.576;13.568;2022-12-18T10:15:58;28.10;;;13.63;;
9409;SDS011;4744;52.576;13.568;2022-12-18T10:18:37;33.53;;;15.03;;
9409;SDS011;4744;52.576;13.568;2022-12-18T10:21:28;29.17;;;14.57;;
9409;SDS011;4744;52.576;13.568;2022-12-18T10:23:59;30.07;;;13.97;;
9409;SDS011;4744;52.576;13.568;2022-12-18T10:26:34;31.73;;;15.10;;
9409;SDS011;4744;52.576;13.568;2022-12-18T10:29:01;30.43;;;14.47;;
9409;SDS011;4744;52.576;13.568;2022-12-18T10:31:34;34.00;;;14.13;;
9409;SDS011;4744;52.576;13.568;2022-12-18T10:34:01;26.73;;;14.07;;
9409;SDS011;4744;52.576;13.568;2022-12-18T10:36:28;26.97;;;14.53;;
9409;SDS011;4744;52.576;13.568;2022-12-18T10:38:57;26.83;;;13.60;;
9409;SDS011;4744;52.576;13.568;2022-12-18T10:41:41;30.43;;;14.27;;
9409;SDS011;4744;52.576;13.568;2022-12-18T10:44:17;28.33;;;12.80;;
9409;SDS011;4744;52.576;13.568;2022-12-18T10:46:47;22.27;;;11.17;;
9409;SDS011;4744;52.576;13.568;2022-12-18T10:49:22;23.77;;;12.37;;
9409;SDS011;4744;52.576;13.568;2022-12-18T10:51:51;21.37;;;11.93;;
9409;SDS011;4744;52.576;13.568;2022-12-18T10:54:33;28.37;;;13.63;;
9409;SDS011;4744;52.576;13.568;2022-12-18T10:57:14;26.70;;;13.70;;
9409;SDS011;4744;52.576;13.568;2022-12-18T10:59:49;26.60;;;14.10;;
9409;SDS011;4744;52.576;13.568;2022-12-18T11:02:26;24.70;;;13.30;;
9409;SDS011;4744;52.576;13.568;2022-12-18T11:04:57;26.37;;;13.80;;
9409;SDS011;4744;52.576;13.568;2022-12-18T11:07:25;28.13;;;13.67;;
9409;SDS011;4744;52.576;13.568;2022-12-18T11:10:14;26.10;;;13.73;;
9409;SDS011;4744;52.576;13.568;2022-12-18T11:12:43;26.40;;;13.93;;
9409;SDS011;4744;52.576;13.568;2022-12-18T11:15:13;25.60;;;13.30;;
9409;SDS011;4744;52.576;13.568;2022-12-18T11:17:44;26.93;;;12.83;;
9409;SDS011;4744;52.576;13.568;2022-12-18T11:20:19;24.07;;;12.70;;
9409;SDS011;4744;52.576;13.568;2022-12-18T11:22:54;24.37;;;12.90;;
9409;SDS011;4744;52.576;13.568;2022-12-18T11:25:22;18.83;;;12.13;;
9409;SDS011;4744;52.576;13.568;2022-12-18T11:27:50;20.23;;;11.97;;
9409;SDS011;4744;52.576;13.568;2022-12-18T11:30:23;22.50;;;12.37;;
9409;SDS011;4744;52.576;13.568;2022-12-18T11:32:53;22.87;;;12.33;;
9409;SDS011;4744;52.576;13.568;2022-12-18T11:35:25;18.60;;;11.13;;
9409;SDS011;4744;52.576;13.568;2022-12-18T11:38:02;18.23;;;10.67;;
9409;SDS011;4744;52.576;13.568;2022-12-18T11:40:33;17.37;;;10.03;;
9409;SDS011;4744;52.576;13.568;2022-12-18T11:43:04;21.27;;;10.20;;
9409;SDS011;4744;52.576;13.568;2022-12-18T11:45:38;18.47;;;9.60;;
9409;SDS011;4744;52.576;13.568;2022-12-18T11:48:12;18.60;;;10.87;;
9409;SDS011;4744;52.576;13.568;2022-12-18T11:50:46;20.03;;;11.37;;
9409;SDS011;4744;52.576;13.568;2022-12-18T11:53:16;16.17;;;10.37;;
9409;SDS011;4744;52.576;13.568;2022-12-18T11:55:47;20.03;;;10.20;;
9409;SDS011;4744;52.576;13.568;2022-12-18T11:58:29;16.97;;;9.83;;
9409;SDS011;4744;52.576;13.568;2022-12-18T12:01:09;19.13;;;10.23;;
9409;SDS011;4744;52.576;13.568;2022-12-18T12:03:56;19.50;;;10.80;;
9409;SDS011;4744;52.576;13.568;2022-12-18T12:06:48;19.20;;;9.73;;
9409;SDS011;4744;52.576;13.568;2022-12-18T12:09:24;19.20;;;9.70;;
9409;SDS011;4744;52.576;13.568;2022-12-18T12:12:02;13.77;;;9.27;;
9409;SDS011;4744;52.576;13.568;2022-12-18T12:14:45;21.90;;;10.97;;
9409;SDS011;4744;52.576;13.568;2022-12-18T12:17:18;17.47;;;9.23;;
9409;SDS011;4744;52.576;13.568;2022-12-18T12:19:59;17.13;;;9.90;;
9409;SDS011;4744;52.576;13.568;2022-12-18T12:22:33;15.50;;;9.07;;
9409;SDS011;4744;52.576;13.568;2022-12-18T12:25:13;16.93;;;8.60;;
9409;SDS011;4744;52.576;13.568;2022-12-18T12:27:49;14.20;;;8.80;;
9409;SDS011;4744;52.576;13.568;2022-12-18T12:30:27;16.73;;;9.27;;
9409;SDS011;4744;52.576;13.568;2022-12-18T12:33:06;14.63;;;8.83;;
9409;SDS011;4744;52.576;13.568;2022-12-18T12:35:46;17.47;;;9.13;;
9409;SDS011;4744;52.576;13.568;2022-12-18T12:38:19;14.90;;;8.70;;
9409;SDS011;4744;52.576;13.568;2022-12-18T12:40:51;17.30;;;8.67;;
9409;SDS011;4744;52.576;13.568;2022-12-18T12:43:22;16.73;;;9.60;;
9409;SDS011;4744;52.576;13.568;2022-12-18T12:46:03;13.83;;;8.60;;
9409;SDS011;4744;52.576;13.568;2022-12-18T12:48:32;15.97;;;8.87;;
9409;SDS011;4744;52.576;13.568;2022-12-18T12:51:09;17.50;;;9.70;;
9409;SDS011;4744;52.576;13.568;2022-12-18T12:53:40;13.50;;;8.50;;
9409;SDS011;4744;52.576;13.568;2022-12-18T12:56:08;14.63;;;9.03;;
9409;SDS011;4744;52.576;13.568;2022-12-18T12:58:39;18.10;;;10.17;;
9409;SDS011;4744;52.576;13.568;2022-12-18T13:01:17;14.13;;;9.30;;
9409;SDS011;4744;52.576;13.568;2022-12-18T13:03:56;14.80;;;9.23;;
9409;SDS011;4744;52.576;13.568;2022-12-18T13:06:39;15.77;;;9.47;;
9409;SDS011;4744;52.576;13.568;2022-12-18T13:09:09;16.90;;;9.80;;
9409;SDS011;4744;52.576;13.568;2022-12-18T13:11:37;16.63;;;9.70;;
9409;SDS011;4744;52.576;13.568;2022-12-18T13:14:24;16.03;;;9.67;;
9409;SDS011;4744;52.576;13.568;2022-12-18T13:22:43;16.93;;;9.87;;
9409;SDS011;4744;52.576;13.568;2022-12-18T13:28:02;20.50;;;10.77;;
9409;SDS011;4744;52.576;13.568;2022-12-18T13:30:41;16.87;;;10.20;;
9409;SDS011;4744;52.576;13.568;2022-12-18T13:36:29;16.43;;;11.10;;
9409;SDS011;4744;52.576;13.568;2022-12-18T13:39:20;17.57;;;11.30;;
9409;SDS011;4744;52.576;13.568;2022-12-18T13:41:50;16.53;;;10.70;;
9409;SDS011;4744;52.576;13.568;2022-12-18T13:44:25;19.60;;;10.37;;
9409;SDS011;4744;52.576;13.568;2022-12-18T13:46:58;18.17;;;11.47;;
9409;SDS011;4744;52.576;13.568;2022-12-18T13:49:26;15.37;;;9.47;;
9409;SDS011;4744;52.576;13.568;2022-12-18T13:51:58;16.00;;;9.60;;
9409;SDS011;4744;52.576;13.568;2022-12-18T13:54:28;17.27;;;10.43;;
9409;SDS011;4744;52.576;13.568;2022-12-18T13:56:59;20.80;;;11.07;;
9409;SDS011;4744;52.576;13.568;2022-12-18T13:59:33;17.07;;;10.27;;
9409;SDS011;4744;52.576;13.568;2022-12-18T14:02:07;16.30;;;10.97;;
9409;SDS011;4744;52.576;13.568;2022-12-18T14:04:39;19.43;;;10.93;;
9409;SDS011;4744;52.576;13.568;2022-12-18T14:07:06;17.63;;;11.33;;
9409;SDS011;4744;52.576;13.568;2022-12-18T14:09:39;17.70;;;11.13;;
9409;SDS011;4744;52.576;13.568;2022-12-18T14:12:14;18.50;;;12.00;;
9409;SDS011;4744;52.576;13.568;2022-12-18T14:15:00;17.63;;;11.13;;
9409;SDS011;4744;52.576;13.568;2022-12-18T14:17:28;17.03;;;11.50;;
9409;SDS011;4744;52.576;13.568;2022-12-18T14:19:58;17.93;;;11.03;;
9409;SDS011;4744;52.576;13.568;2022-12-18T14:22:25;16.27;;;10.90;;
9409;SDS011;4744;52.576;13.568;2022-12-18T14:25:16;15.67;;;9.97;;
9409;SDS011;4744;52.576;13.568;2022-12-18T14:27:45;15.70;;;9.40;;
9409;SDS011;4744;52.576;13.568;2022-12-18T14:30:23;14.53;;;9.90;;
9409;SDS011;4744;52.576;13.568;2022-12-18T14:33:01;17.33;;;11.07;;
9409;SDS011;4744;52.576;13.568;2022-12-18T14:35:29;18.37;;;10.83;;
9409;SDS011;4744;52.576;13.568;2022-12-18T14:38:08;17.70;;;12.13;;
9409;SDS011;4744;52.576;13.568;2022-12-18T14:40:38;18.60;;;11.80;;
9409;SDS011;4744;52.576;13.568;2022-12-18T14:43:05;18.47;;;12.20;;
9409;SDS011;4744;52.576;13.568;2022-12-18T14:45:38;19.03;;;12.93;;
9409;SDS011;4744;52.576;13.568;2022-12-18T14:48:07;19.37;;;12.63;;
9409;SDS011;4744;52.576;13.568;2022-12-18T14:50:35;20.77;;;11.63;;
9409;SDS011;4744;52.576;13.568;2022-12-18T14:53:03;14.43;;;10.17;;
9409;SDS011;4744;52.576;13.568;2022-12-18T14:55:33;18.63;;;11.57;;
9409;SDS011;4744;52.576;13.568;2022-12-18T14:58:03;16.00;;;10.77;;
9409;SDS011;4744;52.576;13.568;2022-12-18T15:00:31;19.97;;;12.50;;
9409;SDS011;4744;52.576;13.568;2022-12-18T15:02:58;18.90;;;13.23;;
9409;SDS011;4744;52.576;13.568;2022-12-18T15:05:26;13.63;;;9.40;;
9409;SDS011;4744;52.576;13.568;2022-12-18T15:07:55;16.33;;;10.53;;
9409;SDS011;4744;52.576;13.568;2022-12-18T15:10:25;16.00;;;10.03;;
9409;SDS011;4744;52.576;13.568;2022-12-18T15:13:07;16.73;;;10.80;;